sensor_id;sensor_type;location;lat;lon;timestamp;temperature;humidity
67893;DHT22;54688;52.376;16.744;2022-09-09T00:02:52;15.4;86.1
67893;DHT22;54688;52.376;16.744;2022-09-09T00:06:02;15.4;86.1
67893;DHT22;54688;52.376;16.744;2022-09-09T00:09:10;15.4;86.3
67893;DHT22;54688;52.376;16.744;2022-09-09T00:12:19;15.4;86.2
67893;DHT22;54688;52.376;16.744;2022-09-09T00:15:30;15.3;86.4
67893;DHT22;54688;52.376;16.744;2022-09-09T00:18:45;15.3;86.2
67893;DHT22;54688;52.376;16.744;2022-09-09T00:21:57;15.3;86.4
67893;DHT22;54688;52.376;16.744;2022-09-09T00:25:10;15.2;86.7
67893;DHT22;54688;52.376;16.744;2022-09-09T00:28:18;15.2;86.7
67893;DHT22;54688;52.376;16.744;2022-09-09T00:31:23;15.2;86.9
67893;DHT22;54688;52.376;16.744;2022-09-09T00:34:28;15.2;86.9
67893;DHT22;54688;52.376;16.744;2022-09-09T00:37:32;15.2;87
67893;DHT22;54688;52.376;16.744;2022-09-09T00:40:37;15.3;87
67893;DHT22;54688;52.376;16.744;2022-09-09T00:43:47;15.2;87.1
67893;DHT22;54688;52.376;16.744;2022-09-09T00:49:58;15.2;87.1
67893;DHT22;54688;52.376;16.744;2022-09-09T00:53:05;15.2;87
67893;DHT22;54688;52.376;16.744;2022-09-09T00:56:22;15.1;87
67893;DHT22;54688;52.376;16.744;2022-09-09T01:02:28;15;87.1
67893;DHT22;54688;52.376;16.744;2022-09-09T01:05:33;15;87.1
67893;DHT22;54688;52.376;16.744;2022-09-09T01:08:52;15;86.9
67893;DHT22;54688;52.376;16.744;2022-09-09T01:12:07;14.9;86.7
67893;DHT22;54688;52.376;16.744;2022-09-09T01:15:15;14.8;86.8
67893;DHT22;54688;52.376;16.744;2022-09-09T01:18:22;14.8;86.7
67893;DHT22;54688;52.376;16.744;2022-09-09T01:21:31;14.7;86.5
67893;DHT22;54688;52.376;16.744;2022-09-09T01:24:40;14.6;86.4
67893;DHT22;54688;52.376;16.744;2022-09-09T01:27:48;14.6;86.4
67893;DHT22;54688;52.376;16.744;2022-09-09T01:30:52;14.5;86.3
67893;DHT22;54688;52.376;16.744;2022-09-09T01:33:55;14.4;86.3
67893;DHT22;54688;52.376;16.744;2022-09-09T01:36:58;14.4;86.3
67893;DHT22;54688;52.376;16.744;2022-09-09T01:40:07;14.3;86.3
67893;DHT22;54688;52.376;16.744;2022-09-09T01:43:09;14.3;86
67893;DHT22;54688;52.376;16.744;2022-09-09T01:46:12;14.3;85.8
67893;DHT22;54688;52.376;16.744;2022-09-09T01:54:24;14.2;85.6
67893;DHT22;54688;52.376;16.744;2022-09-09T01:57:30;14.1;85.8
67893;DHT22;54688;52.376;16.744;2022-09-09T02:00:41;14;85.7
67893;DHT22;54688;52.376;16.744;2022-09-09T02:03:50;13.9;85.8
67893;DHT22;54688;52.376;16.744;2022-09-09T02:06:56;13.8;85.9
67893;DHT22;54688;52.376;16.744;2022-09-09T02:10:00;13.8;85.9
67893;DHT22;54688;52.376;16.744;2022-09-09T02:13:09;13.6;86
67893;DHT22;54688;52.376;16.744;2022-09-09T02:16:14;13.6;86.4
67893;DHT22;54688;52.376;16.744;2022-09-09T02:19:23;13.5;86.4
67893;DHT22;54688;52.376;16.744;2022-09-09T02:22:28;13.5;86.4
67893;DHT22;54688;52.376;16.744;2022-09-09T02:25:33;13.4;86.1
67893;DHT22;54688;52.376;16.744;2022-09-09T02:28:38;13.4;86.1
67893;DHT22;54688;52.376;16.744;2022-09-09T02:31:43;13.3;85.9
67893;DHT22;54688;52.376;16.744;2022-09-09T02:34:50;13.3;85.9
67893;DHT22;54688;52.376;16.744;2022-09-09T02:37:58;13.2;85.7
67893;DHT22;54688;52.376;16.744;2022-09-09T02:41:05;13.1;85.7
67893;DHT22;54688;52.376;16.744;2022-09-09T02:44:09;13.1;85.7
67893;DHT22;54688;52.376;16.744;2022-09-09T02:47:16;13;86
67893;DHT22;54688;52.376;16.744;2022-09-09T02:50:28;13;85.7
67893;DHT22;54688;52.376;16.744;2022-09-09T02:56:33;12.9;86.2
67893;DHT22;54688;52.376;16.744;2022-09-09T02:59:41;12.8;86
67893;DHT22;54688;52.376;16.744;2022-09-09T03:02:45;12.8;86.3
67893;DHT22;54688;52.376;16.744;2022-09-09T03:05:47;12.8;86.8
67893;DHT22;54688;52.376;16.744;2022-09-09T03:08:49;12.7;86.6
67893;DHT22;54688;52.376;16.744;2022-09-09T03:11:51;12.7;86.3
67893;DHT22;54688;52.376;16.744;2022-09-09T03:14:53;12.7;86.2
67893;DHT22;54688;52.376;16.744;2022-09-09T03:17:55;12.6;85.9
67893;DHT22;54688;52.376;16.744;2022-09-09T03:20:58;12.6;86.8
67893;DHT22;54688;52.376;16.744;2022-09-09T03:24:00;12.4;86
67893;DHT22;54688;52.376;16.744;2022-09-09T03:27:03;12.4;87.1
67893;DHT22;54688;52.376;16.744;2022-09-09T03:30:06;12.5;86.9
67893;DHT22;54688;52.376;16.744;2022-09-09T03:33:10;12.5;87.1
67893;DHT22;54688;52.376;16.744;2022-09-09T03:36:12;12.5;87.4
67893;DHT22;54688;52.376;16.744;2022-09-09T03:39:14;12.6;87.6
67893;DHT22;54688;52.376;16.744;2022-09-09T03:42:18;12.6;87.9
67893;DHT22;54688;52.376;16.744;2022-09-09T03:45:20;12.7;88
67893;DHT22;54688;52.376;16.744;2022-09-09T03:48:23;12.8;88
67893;DHT22;54688;52.376;16.744;2022-09-09T03:51:25;12.8;88.2
67893;DHT22;54688;52.376;16.744;2022-09-09T03:54:27;12.8;88.2
67893;DHT22;54688;52.376;16.744;2022-09-09T03:57:30;12.9;88.3
67893;DHT22;54688;52.376;16.744;2022-09-09T04:00:33;13;88.4
67893;DHT22;54688;52.376;16.744;2022-09-09T04:03:35;13;88.3
67893;DHT22;54688;52.376;16.744;2022-09-09T04:06:39;13.1;88.5
67893;DHT22;54688;52.376;16.744;2022-09-09T04:09:41;13.1;88.6
67893;DHT22;54688;52.376;16.744;2022-09-09T04:12:45;13.2;88.9
67893;DHT22;54688;52.376;16.744;2022-09-09T04:15:50;13.3;88.8
67893;DHT22;54688;52.376;16.744;2022-09-09T04:18:53;13.3;88.7
67893;DHT22;54688;52.376;16.744;2022-09-09T04:21:56;13.4;88.7
67893;DHT22;54688;52.376;16.744;2022-09-09T04:24:58;13.4;88.6
67893;DHT22;54688;52.376;16.744;2022-09-09T04:28:00;13.5;88.9
67893;DHT22;54688;52.376;16.744;2022-09-09T04:31:04;13.5;88.7
67893;DHT22;54688;52.376;16.744;2022-09-09T04:37:07;13.6;88.5
67893;DHT22;54688;52.376;16.744;2022-09-09T04:40:09;13.6;88.5
67893;DHT22;54688;52.376;16.744;2022-09-09T04:43:13;13.6;88.6
67893;DHT22;54688;52.376;16.744;2022-09-09T04:46:15;13.6;88.5
67893;DHT22;54688;52.376;16.744;2022-09-09T04:49:17;13.6;88.3
67893;DHT22;54688;52.376;16.744;2022-09-09T04:52:20;13.6;88.2
67893;DHT22;54688;52.376;16.744;2022-09-09T04:55:22;13.6;88.2
67893;DHT22;54688;52.376;16.744;2022-09-09T04:58:24;13.6;88
67893;DHT22;54688;52.376;16.744;2022-09-09T05:01:26;13.6;88
67893;DHT22;54688;52.376;16.744;2022-09-09T05:04:28;13.6;87.9
67893;DHT22;54688;52.376;16.744;2022-09-09T05:07:30;13.6;87.9
67893;DHT22;54688;52.376;16.744;2022-09-09T05:10:33;13.6;87.9
67893;DHT22;54688;52.376;16.744;2022-09-09T05:13:38;13.6;88
67893;DHT22;54688;52.376;16.744;2022-09-09T05:16:40;13.6;87.9
67893;DHT22;54688;52.376;16.744;2022-09-09T05:19:42;13.6;87.9
67893;DHT22;54688;52.376;16.744;2022-09-09T05:22:46;13.6;88
67893;DHT22;54688;52.376;16.744;2022-09-09T05:25:56;13.6;88.2
67893;DHT22;54688;52.376;16.744;2022-09-09T05:28:58;13.7;88.4
67893;DHT22;54688;52.376;16.744;2022-09-09T05:32:01;13.7;88.5
67893;DHT22;54688;52.376;16.744;2022-09-09T05:35:04;13.7;88.1
67893;DHT22;54688;52.376;16.744;2022-09-09T05:38:07;13.7;87.9
67893;DHT22;54688;52.376;16.744;2022-09-09T05:41:09;13.7;87.8
67893;DHT22;54688;52.376;16.744;2022-09-09T05:44:14;13.7;88
67893;DHT22;54688;52.376;16.744;2022-09-09T05:47:16;13.7;88.1
67893;DHT22;54688;52.376;16.744;2022-09-09T05:50:18;13.8;88.1
67893;DHT22;54688;52.376;16.744;2022-09-09T05:53:21;13.8;88.1
67893;DHT22;54688;52.376;16.744;2022-09-09T05:56:26;13.8;87.9
67893;DHT22;54688;52.376;16.744;2022-09-09T05:59:29;13.8;88
67893;DHT22;54688;52.376;16.744;2022-09-09T06:02:31;13.8;88.2
67893;DHT22;54688;52.376;16.744;2022-09-09T06:05:33;13.9;88.5
67893;DHT22;54688;52.376;16.744;2022-09-09T06:08:36;13.9;88.6
67893;DHT22;54688;52.376;16.744;2022-09-09T06:11:39;14;88.6
67893;DHT22;54688;52.376;16.744;2022-09-09T06:14:41;14.1;88
67893;DHT22;54688;52.376;16.744;2022-09-09T06:17:43;14.1;88
67893;DHT22;54688;52.376;16.744;2022-09-09T06:20:53;14.1;87.8
67893;DHT22;54688;52.376;16.744;2022-09-09T06:23:56;14.1;87.5
67893;DHT22;54688;52.376;16.744;2022-09-09T06:27:00;14.1;87.3
67893;DHT22;54688;52.376;16.744;2022-09-09T06:30:05;14.1;87.4
67893;DHT22;54688;52.376;16.744;2022-09-09T06:33:09;14.2;87.6
67893;DHT22;54688;52.376;16.744;2022-09-09T06:36:12;14.2;87.6
67893;DHT22;54688;52.376;16.744;2022-09-09T06:39:16;14.2;87.6
67893;DHT22;54688;52.376;16.744;2022-09-09T06:42:18;14.2;87.7
67893;DHT22;54688;52.376;16.744;2022-09-09T06:45:21;14.3;87.7
67893;DHT22;54688;52.376;16.744;2022-09-09T06:51:23;14.4;87.7
67893;DHT22;54688;52.376;16.744;2022-09-09T06:54:27;14.4;87.7
67893;DHT22;54688;52.376;16.744;2022-09-09T06:57:29;14.5;87.7
67893;DHT22;54688;52.376;16.744;2022-09-09T07:00:32;14.5;87.5
67893;DHT22;54688;52.376;16.744;2022-09-09T07:03:34;14.6;87.4
67893;DHT22;54688;52.376;16.744;2022-09-09T07:06:37;14.6;87.5
67893;DHT22;54688;52.376;16.744;2022-09-09T07:09:41;14.7;87.6
67893;DHT22;54688;52.376;16.744;2022-09-09T07:12:44;14.7;87.8
67893;DHT22;54688;52.376;16.744;2022-09-09T07:15:51;14.8;87.6
67893;DHT22;54688;52.376;16.744;2022-09-09T07:18:54;14.8;87.6
67893;DHT22;54688;52.376;16.744;2022-09-09T07:21:57;14.9;87.6
67893;DHT22;54688;52.376;16.744;2022-09-09T07:25:00;14.9;87.4
67893;DHT22;54688;52.376;16.744;2022-09-09T07:28:02;15;87.5
67893;DHT22;54688;52.376;16.744;2022-09-09T07:31:05;15;87.9
67893;DHT22;54688;52.376;16.744;2022-09-09T07:34:08;15.1;87.5
67893;DHT22;54688;52.376;16.744;2022-09-09T07:37:10;15.1;87.3
67893;DHT22;54688;52.376;16.744;2022-09-09T07:40:12;15.2;86.6
67893;DHT22;54688;52.376;16.744;2022-09-09T07:43:14;15.2;86.5
67893;DHT22;54688;52.376;16.744;2022-09-09T07:46:18;15.3;86.3
67893;DHT22;54688;52.376;16.744;2022-09-09T07:49:21;15.3;86.4
67893;DHT22;54688;52.376;16.744;2022-09-09T07:52:23;15.4;86.1
67893;DHT22;54688;52.376;16.744;2022-09-09T07:55:25;15.4;85.7
67893;DHT22;54688;52.376;16.744;2022-09-09T07:58:27;15.4;85.4
67893;DHT22;54688;52.376;16.744;2022-09-09T08:01:30;15.5;85.8
67893;DHT22;54688;52.376;16.744;2022-09-09T08:04:33;15.6;85.8
67893;DHT22;54688;52.376;16.744;2022-09-09T08:07:35;15.7;85.6
67893;DHT22;54688;52.376;16.744;2022-09-09T08:10:37;15.8;84.9
67893;DHT22;54688;52.376;16.744;2022-09-09T08:13:40;15.8;84.5
67893;DHT22;54688;52.376;16.744;2022-09-09T08:16:44;15.9;84.5
67893;DHT22;54688;52.376;16.744;2022-09-09T08:19:47;16;83.6
67893;DHT22;54688;52.376;16.744;2022-09-09T08:22:49;16;83.2
67893;DHT22;54688;52.376;16.744;2022-09-09T08:25:51;16;83.4
67893;DHT22;54688;52.376;16.744;2022-09-09T08:28:54;16;83.4
67893;DHT22;54688;52.376;16.744;2022-09-09T08:31:58;16.1;83
67893;DHT22;54688;52.376;16.744;2022-09-09T08:35:00;16.2;83.4
67893;DHT22;54688;52.376;16.744;2022-09-09T08:38:05;16.2;83.2
67893;DHT22;54688;52.376;16.744;2022-09-09T08:41:12;16.2;82.8
67893;DHT22;54688;52.376;16.744;2022-09-09T08:44:30;16.3;82.7
67893;DHT22;54688;52.376;16.744;2022-09-09T08:47:49;16.4;81.5
67893;DHT22;54688;52.376;16.744;2022-09-09T08:51:04;16.5;80.2
67893;DHT22;54688;52.376;16.744;2022-09-09T08:54:07;16.5;80.8
67893;DHT22;54688;52.376;16.744;2022-09-09T08:57:11;16.5;80.9
67893;DHT22;54688;52.376;16.744;2022-09-09T09:00:18;16.6;81.7
67893;DHT22;54688;52.376;16.744;2022-09-09T09:03:22;16.6;82.1
67893;DHT22;54688;52.376;16.744;2022-09-09T09:06:35;16.7;79.7
67893;DHT22;54688;52.376;16.744;2022-09-09T09:09:46;16.8;79.6
67893;DHT22;54688;52.376;16.744;2022-09-09T09:12:55;16.8;79.4
67893;DHT22;54688;52.376;16.744;2022-09-09T09:15:59;16.9;78.8
67893;DHT22;54688;52.376;16.744;2022-09-09T09:19:06;16.9;77
67893;DHT22;54688;52.376;16.744;2022-09-09T09:25:14;16.9;77.4
67893;DHT22;54688;52.376;16.744;2022-09-09T09:28:20;17.1;77.8
67893;DHT22;54688;52.376;16.744;2022-09-09T09:31:25;17.2;78.7
67893;DHT22;54688;52.376;16.744;2022-09-09T09:34:27;17.2;78.9
67893;DHT22;54688;52.376;16.744;2022-09-09T09:37:30;17.4;78.5
67893;DHT22;54688;52.376;16.744;2022-09-09T09:40:35;17.5;78.5
67893;DHT22;54688;52.376;16.744;2022-09-09T09:43:39;17.7;77.9
67893;DHT22;54688;52.376;16.744;2022-09-09T09:46:42;17.9;76.6
67893;DHT22;54688;52.376;16.744;2022-09-09T09:49:53;17.9;76.2
67893;DHT22;54688;52.376;16.744;2022-09-09T09:52:56;18.1;75.5
67893;DHT22;54688;52.376;16.744;2022-09-09T09:56:00;18.2;74.3
67893;DHT22;54688;52.376;16.744;2022-09-09T09:59:04;18.4;74.5
67893;DHT22;54688;52.376;16.744;2022-09-09T10:02:14;18.4;75.3
67893;DHT22;54688;52.376;16.744;2022-09-09T10:05:18;18.6;75.6
67893;DHT22;54688;52.376;16.744;2022-09-09T10:08:23;18.7;74.7
67893;DHT22;54688;52.376;16.744;2022-09-09T10:11:29;18.8;72.7
67893;DHT22;54688;52.376;16.744;2022-09-09T10:14:40;18.9;71.8
67893;DHT22;54688;52.376;16.744;2022-09-09T10:17:53;18.9;70.6
67893;DHT22;54688;52.376;16.744;2022-09-09T10:21:01;19;70.4
67893;DHT22;54688;52.376;16.744;2022-09-09T10:24:14;19.2;68.1
67893;DHT22;54688;52.376;16.744;2022-09-09T10:27:33;19.2;67.3
67893;DHT22;54688;52.376;16.744;2022-09-09T10:30:45;19.2;66
67893;DHT22;54688;52.376;16.744;2022-09-09T10:33:59;19.4;66.6
67893;DHT22;54688;52.376;16.744;2022-09-09T10:37:15;19.5;64.6
67893;DHT22;54688;52.376;16.744;2022-09-09T10:40:28;19.5;63.7
67893;DHT22;54688;52.376;16.744;2022-09-09T10:43:39;19.6;64.8
67893;DHT22;54688;52.376;16.744;2022-09-09T10:47:57;19.6;63.2
67893;DHT22;54688;52.376;16.744;2022-09-09T10:51:11;19.6;64.4
67893;DHT22;54688;52.376;16.744;2022-09-09T10:54:24;19.6;64.6
67893;DHT22;54688;52.376;16.744;2022-09-09T10:57:33;19.7;62.7
67893;DHT22;54688;52.376;16.744;2022-09-09T11:00:40;19.7;64.2
67893;DHT22;54688;52.376;16.744;2022-09-09T11:03:45;19.7;65.1
67893;DHT22;54688;52.376;16.744;2022-09-09T11:06:55;19.8;63.7
67893;DHT22;54688;52.376;16.744;2022-09-09T11:09:59;19.9;61.7
67893;DHT22;54688;52.376;16.744;2022-09-09T11:13:09;19.9;61
67893;DHT22;54688;52.376;16.744;2022-09-09T11:16:21;20;62.5
67893;DHT22;54688;52.376;16.744;2022-09-09T11:19:26;20.1;61.3
67893;DHT22;54688;52.376;16.744;2022-09-09T11:22:33;20.2;61.3
67893;DHT22;54688;52.376;16.744;2022-09-09T11:25:39;20.2;62
67893;DHT22;54688;52.376;16.744;2022-09-09T11:28:49;20.3;61.8
67893;DHT22;54688;52.376;16.744;2022-09-09T11:32:04;20.4;61.8
67893;DHT22;54688;52.376;16.744;2022-09-09T11:35:21;20.5;62
67893;DHT22;54688;52.376;16.744;2022-09-09T11:38:32;20.7;60
67893;DHT22;54688;52.376;16.744;2022-09-09T11:41:40;20.9;60
67893;DHT22;54688;52.376;16.744;2022-09-09T11:44:43;21.1;59.4
67893;DHT22;54688;52.376;16.744;2022-09-09T11:47:50;21.1;54.9
67893;DHT22;54688;52.376;16.744;2022-09-09T11:50:57;21.2;56.3
67893;DHT22;54688;52.376;16.744;2022-09-09T11:54:03;21.2;55.9
67893;DHT22;54688;52.376;16.744;2022-09-09T11:57:30;21.2;54.8
67893;DHT22;54688;52.376;16.744;2022-09-09T12:00:36;21.3;54.8
67893;DHT22;54688;52.376;16.744;2022-09-09T12:03:40;21.3;54.6
67893;DHT22;54688;52.376;16.744;2022-09-09T12:06:46;21.4;55.7
67893;DHT22;54688;52.376;16.744;2022-09-09T12:09:51;21.6;54.6
67893;DHT22;54688;52.376;16.744;2022-09-09T12:13:07;21.8;54.6
67893;DHT22;54688;52.376;16.744;2022-09-09T12:16:26;21.8;52.7
67893;DHT22;54688;52.376;16.744;2022-09-09T12:19:30;21.9;53.2
67893;DHT22;54688;52.376;16.744;2022-09-09T12:22:35;22;51.6
67893;DHT22;54688;52.376;16.744;2022-09-09T12:25:48;22.1;52
67893;DHT22;54688;52.376;16.744;2022-09-09T12:29:03;22.3;51.7
67893;DHT22;54688;52.376;16.744;2022-09-09T12:32:14;22.3;52.9
67893;DHT22;54688;52.376;16.744;2022-09-09T12:35:19;22.5;48.1
67893;DHT22;54688;52.376;16.744;2022-09-09T12:38:26;22.7;50.4
67893;DHT22;54688;52.376;16.744;2022-09-09T12:41:34;22.8;51.1
67893;DHT22;54688;52.376;16.744;2022-09-09T12:44:35;22.9;49.4
67893;DHT22;54688;52.376;16.744;2022-09-09T12:47:38;23;50.8
67893;DHT22;54688;52.376;16.744;2022-09-09T12:50:47;23.1;50.4
67893;DHT22;54688;52.376;16.744;2022-09-09T12:53:52;23.4;50.8
67893;DHT22;54688;52.376;16.744;2022-09-09T12:56:56;23.8;47.7
67893;DHT22;54688;52.376;16.744;2022-09-09T13:00:10;24;45.8
67893;DHT22;54688;52.376;16.744;2022-09-09T13:03:17;24.2;44.6
67893;DHT22;54688;52.376;16.744;2022-09-09T13:06:22;24.3;45.2
67893;DHT22;54688;52.376;16.744;2022-09-09T13:09:25;24.3;45
67893;DHT22;54688;52.376;16.744;2022-09-09T13:12:28;24.1;46.5
67893;DHT22;54688;52.376;16.744;2022-09-09T13:15:30;24.1;47.1
67893;DHT22;54688;52.376;16.744;2022-09-09T13:18:33;24.1;46.4
67893;DHT22;54688;52.376;16.744;2022-09-09T13:21:38;24;46
67893;DHT22;54688;52.376;16.744;2022-09-09T13:24:42;24.2;45.6
67893;DHT22;54688;52.376;16.744;2022-09-09T13:27:52;24.4;45.5
67893;DHT22;54688;52.376;16.744;2022-09-09T13:31:05;24.5;45
67893;DHT22;54688;52.376;16.744;2022-09-09T13:34:33;24.6;44.8
67893;DHT22;54688;52.376;16.744;2022-09-09T13:45:14;24.3;45.3
67893;DHT22;54688;52.376;16.744;2022-09-09T13:48:21;24.2;44.6
67893;DHT22;54688;52.376;16.744;2022-09-09T13:55:02;24;43.7
67893;DHT22;54688;52.376;16.744;2022-09-09T14:06:48;23.7;45.6
67893;DHT22;54688;52.376;16.744;2022-09-09T14:09:51;23.3;46
67893;DHT22;54688;52.376;16.744;2022-09-09T14:12:57;23.2;47.1
67893;DHT22;54688;52.376;16.744;2022-09-09T14:16:06;23.1;46.7
67893;DHT22;54688;52.376;16.744;2022-09-09T14:22:35;22.9;48.3
67893;DHT22;54688;52.376;16.744;2022-09-09T14:51:34;24.4;46
67893;DHT22;54688;52.376;16.744;2022-09-09T14:54:36;24.5;46
67893;DHT22;54688;52.376;16.744;2022-09-09T14:57:39;24.4;45.5
67893;DHT22;54688;52.376;16.744;2022-09-09T15:00:42;24.3;46.3
67893;DHT22;54688;52.376;16.744;2022-09-09T15:03:48;24.2;47
67893;DHT22;54688;52.376;16.744;2022-09-09T15:06:51;24.1;47.7
67893;DHT22;54688;52.376;16.744;2022-09-09T15:09:54;24;48.8
67893;DHT22;54688;52.376;16.744;2022-09-09T15:12:56;23.9;47.8
67893;DHT22;54688;52.376;16.744;2022-09-09T15:16:03;23.8;47.8
67893;DHT22;54688;52.376;16.744;2022-09-09T15:19:06;23.8;47.5
67893;DHT22;54688;52.376;16.744;2022-09-09T15:22:08;23.9;49.2
67893;DHT22;54688;52.376;16.744;2022-09-09T15:25:10;24;47.6
67893;DHT22;54688;52.376;16.744;2022-09-09T15:28:13;24.2;48
67893;DHT22;54688;52.376;16.744;2022-09-09T15:31:16;24.3;47.2
67893;DHT22;54688;52.376;16.744;2022-09-09T15:34:19;24.3;47.8
67893;DHT22;54688;52.376;16.744;2022-09-09T15:37:21;24.3;47.6
67893;DHT22;54688;52.376;16.744;2022-09-09T15:40:23;24.2;46
67893;DHT22;54688;52.376;16.744;2022-09-09T15:43:32;24;48.2
67893;DHT22;54688;52.376;16.744;2022-09-09T15:46:35;23.9;47
67893;DHT22;54688;52.376;16.744;2022-09-09T15:49:38;23.8;47.6
67893;DHT22;54688;52.376;16.744;2022-09-09T15:52:41;23.6;48.6
67893;DHT22;54688;52.376;16.744;2022-09-09T15:55:43;23.5;49.2
67893;DHT22;54688;52.376;16.744;2022-09-09T15:58:46;23.4;49.7
67893;DHT22;54688;52.376;16.744;2022-09-09T16:01:50;23.4;49.7
67893;DHT22;54688;52.376;16.744;2022-09-09T16:04:53;23.5;49.8
67893;DHT22;54688;52.376;16.744;2022-09-09T16:07:56;24;50.6
67893;DHT22;54688;52.376;16.744;2022-09-09T16:11:03;24.5;48.7
67893;DHT22;54688;52.376;16.744;2022-09-09T16:14:07;24.9;46.9
67893;DHT22;54688;52.376;16.744;2022-09-09T16:17:09;25.3;45.8
67893;DHT22;54688;52.376;16.744;2022-09-09T16:20:12;25.4;47
67893;DHT22;54688;52.376;16.744;2022-09-09T16:23:14;25.5;46.2
67893;DHT22;54688;52.376;16.744;2022-09-09T16:26:17;25.7;46.4
67893;DHT22;54688;52.376;16.744;2022-09-09T16:29:19;25.9;45.4
67893;DHT22;54688;52.376;16.744;2022-09-09T16:32:23;25.9;44.9
67893;DHT22;54688;52.376;16.744;2022-09-09T16:35:25;25.9;45.2
67893;DHT22;54688;52.376;16.744;2022-09-09T16:38:28;25.8;46.8
67893;DHT22;54688;52.376;16.744;2022-09-09T16:41:30;25.7;46.1
67893;DHT22;54688;52.376;16.744;2022-09-09T16:44:33;25.6;46.4
67893;DHT22;54688;52.376;16.744;2022-09-09T16:47:36;25.4;45.5
67893;DHT22;54688;52.376;16.744;2022-09-09T16:50:38;25.3;45.2
67893;DHT22;54688;52.376;16.744;2022-09-09T16:53:41;25.1;45.5
67893;DHT22;54688;52.376;16.744;2022-09-09T16:56:44;24.9;47
67893;DHT22;54688;52.376;16.744;2022-09-09T16:59:48;24.7;47.3
67893;DHT22;54688;52.376;16.744;2022-09-09T17:02:51;24.5;48.2
67893;DHT22;54688;52.376;16.744;2022-09-09T17:05:54;24.3;47.9
67893;DHT22;54688;52.376;16.744;2022-09-09T17:08:56;24;49.8
67893;DHT22;54688;52.376;16.744;2022-09-09T17:11:59;23.7;49.6
67893;DHT22;54688;52.376;16.744;2022-09-09T17:15:03;23.4;50.5
67893;DHT22;54688;52.376;16.744;2022-09-09T17:18:06;23.1;50.3
67893;DHT22;54688;52.376;16.744;2022-09-09T17:21:09;22.8;51.4
67893;DHT22;54688;52.376;16.744;2022-09-09T17:24:13;22.6;52.3
67893;DHT22;54688;52.376;16.744;2022-09-09T17:27:16;22.3;54
67893;DHT22;54688;52.376;16.744;2022-09-09T17:30:18;22;53.7
67893;DHT22;54688;52.376;16.744;2022-09-09T17:33:21;21.8;55.4
67893;DHT22;54688;52.376;16.744;2022-09-09T17:36:24;21.6;55
67893;DHT22;54688;52.376;16.744;2022-09-09T17:39:27;21.4;55.6
67893;DHT22;54688;52.376;16.744;2022-09-09T17:42:30;21.1;56.4
67893;DHT22;54688;52.376;16.744;2022-09-09T17:45:32;21;56.7
67893;DHT22;54688;52.376;16.744;2022-09-09T17:48:35;20.8;57.5
67893;DHT22;54688;52.376;16.744;2022-09-09T17:51:38;20.6;57.5
67893;DHT22;54688;52.376;16.744;2022-09-09T17:54:40;20.5;59.3
67893;DHT22;54688;52.376;16.744;2022-09-09T17:57:42;20.3;59.7
67893;DHT22;54688;52.376;16.744;2022-09-09T18:00:45;20.1;60.8
67893;DHT22;54688;52.376;16.744;2022-09-09T18:03:49;20;61.2
67893;DHT22;54688;52.376;16.744;2022-09-09T18:06:52;19.9;62.4
67893;DHT22;54688;52.376;16.744;2022-09-09T18:09:55;19.6;61.9
67893;DHT22;54688;52.376;16.744;2022-09-09T18:12:58;19.5;62.3
67893;DHT22;54688;52.376;16.744;2022-09-09T18:16:01;19.5;63.3
67893;DHT22;54688;52.376;16.744;2022-09-09T18:19:09;19.3;63
67893;DHT22;54688;52.376;16.744;2022-09-09T18:22:12;19.2;63.6
67893;DHT22;54688;52.376;16.744;2022-09-09T18:25:15;19.1;63.9
67893;DHT22;54688;52.376;16.744;2022-09-09T18:28:17;18.9;63.9
67893;DHT22;54688;52.376;16.744;2022-09-09T18:31:21;18.8;65.1
67893;DHT22;54688;52.376;16.744;2022-09-09T18:34:25;18.7;65.1
67893;DHT22;54688;52.376;16.744;2022-09-09T18:37:27;18.6;65.5
67893;DHT22;54688;52.376;16.744;2022-09-09T18:43:29;18.4;66.2
67893;DHT22;54688;52.376;16.744;2022-09-09T18:46:33;18.3;66.4
67893;DHT22;54688;52.376;16.744;2022-09-09T18:49:36;18.1;66.7
67893;DHT22;54688;52.376;16.744;2022-09-09T18:52:39;18;67.4
67893;DHT22;54688;52.376;16.744;2022-09-09T18:55:41;18;67.5
67893;DHT22;54688;52.376;16.744;2022-09-09T18:58:44;17.9;67.4
67893;DHT22;54688;52.376;16.744;2022-09-09T19:01:46;17.8;68
67893;DHT22;54688;52.376;16.744;2022-09-09T19:04:51;17.7;68.8
67893;DHT22;54688;52.376;16.744;2022-09-09T19:07:53;17.6;68.9
67893;DHT22;54688;52.376;16.744;2022-09-09T19:10:59;17.5;68.6
67893;DHT22;54688;52.376;16.744;2022-09-09T19:14:03;17.5;69.7
67893;DHT22;54688;52.376;16.744;2022-09-09T19:17:06;17.4;69.6
67893;DHT22;54688;52.376;16.744;2022-09-09T19:20:08;17.3;69.9
67893;DHT22;54688;52.376;16.744;2022-09-09T19:23:10;17.3;70.4
67893;DHT22;54688;52.376;16.744;2022-09-09T19:26:13;17.2;70.6
67893;DHT22;54688;52.376;16.744;2022-09-09T19:29:16;17.1;70.8
67893;DHT22;54688;52.376;16.744;2022-09-09T19:32:20;17.1;70.9
67893;DHT22;54688;52.376;16.744;2022-09-09T19:35:22;17;71.2
67893;DHT22;54688;52.376;16.744;2022-09-09T19:38:25;17;71.6
67893;DHT22;54688;52.376;16.744;2022-09-09T19:41:28;17;72.1
67893;DHT22;54688;52.376;16.744;2022-09-09T19:44:31;16.9;71.8
67893;DHT22;54688;52.376;16.744;2022-09-09T19:47:33;17;71.9
67893;DHT22;54688;52.376;16.744;2022-09-09T19:50:35;16.9;71.5
67893;DHT22;54688;52.376;16.744;2022-09-09T19:53:38;17;71.3
67893;DHT22;54688;52.376;16.744;2022-09-09T19:56:43;17;70.9
67893;DHT22;54688;52.376;16.744;2022-09-09T19:59:45;17;70.9
67893;DHT22;54688;52.376;16.744;2022-09-09T20:02:48;16.9;71.3
67893;DHT22;54688;52.376;16.744;2022-09-09T20:05:51;16.9;71.1
67893;DHT22;54688;52.376;16.744;2022-09-09T20:08:54;16.9;71.4
67893;DHT22;54688;52.376;16.744;2022-09-09T20:11:57;16.8;72.1
67893;DHT22;54688;52.376;16.744;2022-09-09T20:14:59;16.8;72.5
67893;DHT22;54688;52.376;16.744;2022-09-09T20:18:02;16.8;72.5
67893;DHT22;54688;52.376;16.744;2022-09-09T20:21:07;16.7;72.8
67893;DHT22;54688;52.376;16.744;2022-09-09T20:24:12;16.7;72.9
67893;DHT22;54688;52.376;16.744;2022-09-09T20:27:14;16.6;73.8
67893;DHT22;54688;52.376;16.744;2022-09-09T20:30:17;16.7;74.1
67893;DHT22;54688;52.376;16.744;2022-09-09T20:33:18;16.6;74.1
67893;DHT22;54688;52.376;16.744;2022-09-09T20:36:22;16.6;74.6
67893;DHT22;54688;52.376;16.744;2022-09-09T20:39:25;16.6;75
67893;DHT22;54688;52.376;16.744;2022-09-09T20:42:28;16.6;74.5
67893;DHT22;54688;52.376;16.744;2022-09-09T20:45:34;16.6;74.4
67893;DHT22;54688;52.376;16.744;2022-09-09T20:48:36;16.5;74.5
67893;DHT22;54688;52.376;16.744;2022-09-09T20:51:38;16.5;74.7
67893;DHT22;54688;52.376;16.744;2022-09-09T20:54:41;16.5;74.8
67893;DHT22;54688;52.376;16.744;2022-09-09T20:57:43;16.5;75.3
67893;DHT22;54688;52.376;16.744;2022-09-09T21:00:45;16.5;74.4
67893;DHT22;54688;52.376;16.744;2022-09-09T21:03:48;16.5;75
67893;DHT22;54688;52.376;16.744;2022-09-09T21:06:52;16.5;74.9
67893;DHT22;54688;52.376;16.744;2022-09-09T21:09:55;16.5;74.5
67893;DHT22;54688;52.376;16.744;2022-09-09T21:12:57;16.5;74.7